sensor_id;sensor_type;location;lat;lon;timestamp;temperature;humidity
51589;DHT22;37671;53.258;6.460;2022-11-20T00:00:08;-0.40;99.90
51589;DHT22;37671;53.258;6.460;2022-11-20T00:02:34;-0.40;99.90
51589;DHT22;37671;53.258;6.460;2022-11-20T00:04:59;-0.40;99.90
51589;DHT22;37671;53.258;6.460;2022-11-20T00:07:25;-0.40;99.90
51589;DHT22;37671;53.258;6.460;2022-11-20T00:09:51;-0.30;99.90
51589;DHT22;37671;53.258;6.460;2022-11-20T00:12:16;-0.30;99.90
51589;DHT22;37671;53.258;6.460;2022-11-20T00:14:42;-0.30;99.90
51589;DHT22;37671;53.258;6.460;2022-11-20T00:17:07;-0.30;99.90
51589;DHT22;37671;53.258;6.460;2022-11-20T00:19:33;-0.30;99.90
51589;DHT22;37671;53.258;6.460;2022-11-20T00:21:58;-0.30;99.90
51589;DHT22;37671;53.258;6.460;2022-11-20T00:24:24;-0.30;99.90
51589;DHT22;37671;53.258;6.460;2022-11-20T00:26:49;-0.30;99.90
51589;DHT22;37671;53.258;6.460;2022-11-20T00:29:15;-0.20;99.90
51589;DHT22;37671;53.258;6.460;2022-11-20T00:31:41;-0.20;99.90
51589;DHT22;37671;53.258;6.460;2022-11-20T00:34:06;-0.30;99.90
51589;DHT22;37671;53.258;6.460;2022-11-20T00:36:33;-0.20;99.90
51589;DHT22;37671;53.258;6.460;2022-11-20T00:38:59;-0.20;99.90
51589;DHT22;37671;53.258;6.460;2022-11-20T00:41:26;-0.20;99.90
51589;DHT22;37671;53.258;6.460;2022-11-20T00:43:53;-0.20;99.90
51589;DHT22;37671;53.258;6.460;2022-11-20T00:46:21;-0.30;99.90
51589;DHT22;37671;53.258;6.460;2022-11-20T00:48:47;-0.20;99.90
51589;DHT22;37671;53.258;6.460;2022-11-20T00:51:15;-0.20;99.90
51589;DHT22;37671;53.258;6.460;2022-11-20T00:53:42;-0.20;99.90
51589;DHT22;37671;53.258;6.460;2022-11-20T00:56:12;-0.20;99.90
51589;DHT22;37671;53.258;6.460;2022-11-20T00:58:39;-0.20;99.90
51589;DHT22;37671;53.258;6.460;2022-11-20T01:01:08;-0.10;99.90
51589;DHT22;37671;53.258;6.460;2022-11-20T01:03:44;-0.10;99.90
51589;DHT22;37671;53.258;6.460;2022-11-20T01:06:13;-0.10;99.90
51589;DHT22;37671;53.258;6.460;2022-11-20T01:08:39;-0.10;99.90
51589;DHT22;37671;53.258;6.460;2022-11-20T01:11:10;-0.10;99.90
51589;DHT22;37671;53.258;6.460;2022-11-20T01:13:36;-0.10;99.90
51589;DHT22;37671;53.258;6.460;2022-11-20T01:16:08;-0.10;99.90
51589;DHT22;37671;53.258;6.460;2022-11-20T01:18:36;-0.10;99.90
51589;DHT22;37671;53.258;6.460;2022-11-20T01:21:06;-0.10;99.90
51589;DHT22;37671;53.258;6.460;2022-11-20T01:23:33;-0.20;99.90
51589;DHT22;37671;53.258;6.460;2022-11-20T01:26:11;-0.20;99.90
51589;DHT22;37671;53.258;6.460;2022-11-20T01:28:38;-0.20;99.90
51589;DHT22;37671;53.258;6.460;2022-11-20T01:31:33;-0.20;99.90
51589;DHT22;37671;53.258;6.460;2022-11-20T01:34:02;0.60;99.90
51589;DHT22;37671;53.258;6.460;2022-11-20T01:36:30;-0.10;99.90
51589;DHT22;37671;53.258;6.460;2022-11-20T01:38:58;-0.20;99.90
51589;DHT22;37671;53.258;6.460;2022-11-20T01:41:25;-0.20;99.90
51589;DHT22;37671;53.258;6.460;2022-11-20T01:44:12;-0.20;99.90
51589;DHT22;37671;53.258;6.460;2022-11-20T01:46:48;-0.10;99.90
51589;DHT22;37671;53.258;6.460;2022-11-20T01:49:21;-0.10;99.90
51589;DHT22;37671;53.258;6.460;2022-11-20T01:51:57;-0.20;99.90
51589;DHT22;37671;53.258;6.460;2022-11-20T01:54:36;-0.20;99.90
51589;DHT22;37671;53.258;6.460;2022-11-20T01:57:05;-0.20;99.90
51589;DHT22;37671;53.258;6.460;2022-11-20T01:59:32;-0.20;99.90
51589;DHT22;37671;53.258;6.460;2022-11-20T02:01:58;-0.10;99.90
51589;DHT22;37671;53.258;6.460;2022-11-20T02:04:24;-0.20;99.90
51589;DHT22;37671;53.258;6.460;2022-11-20T02:07:00;-0.20;99.90
51589;DHT22;37671;53.258;6.460;2022-11-20T02:09:28;-0.10;99.90
51589;DHT22;37671;53.258;6.460;2022-11-20T02:11:54;-0.20;99.90
51589;DHT22;37671;53.258;6.460;2022-11-20T02:14:21;-0.10;99.90
51589;DHT22;37671;53.258;6.460;2022-11-20T02:16:48;-0.10;99.90
51589;DHT22;37671;53.258;6.460;2022-11-20T02:19:24;-0.10;99.90
51589;DHT22;37671;53.258;6.460;2022-11-20T02:22:08;-0.10;99.90
51589;DHT22;37671;53.258;6.460;2022-11-20T02:24:37;-0.10;99.90
51589;DHT22;37671;53.258;6.460;2022-11-20T02:29:56;-0.10;99.90
51589;DHT22;37671;53.258;6.460;2022-11-20T07:02:51;0.40;99.90
51589;DHT22;37671;53.258;6.460;2022-11-20T07:05:17;0.40;99.90
51589;DHT22;37671;53.258;6.460;2022-11-20T07:07:43;0.40;99.90
51589;DHT22;37671;53.258;6.460;2022-11-20T07:10:09;0.40;99.90
51589;DHT22;37671;53.258;6.460;2022-11-20T07:12:35;0.40;99.90
51589;DHT22;37671;53.258;6.460;2022-11-20T07:15:01;0.40;99.90
51589;DHT22;37671;53.258;6.460;2022-11-20T07:17:26;0.40;99.90
51589;DHT22;37671;53.258;6.460;2022-11-20T07:19:52;0.40;99.90
51589;DHT22;37671;53.258;6.460;2022-11-20T07:22:17;0.40;99.90
51589;DHT22;37671;53.258;6.460;2022-11-20T07:24:43;0.40;99.90
51589;DHT22;37671;53.258;6.460;2022-11-20T07:27:09;0.50;99.90
51589;DHT22;37671;53.258;6.460;2022-11-20T07:29:34;0.40;99.90
51589;DHT22;37671;53.258;6.460;2022-11-20T07:32:00;0.50;99.90
51589;DHT22;37671;53.258;6.460;2022-11-20T07:34:25;1.80;99.90
51589;DHT22;37671;53.258;6.460;2022-11-20T07:36:51;0.50;99.90
51589;DHT22;37671;53.258;6.460;2022-11-20T07:39:17;0.50;99.90
51589;DHT22;37671;53.258;6.460;2022-11-20T07:41:42;0.50;99.90
51589;DHT22;37671;53.258;6.460;2022-11-20T07:44:08;0.50;99.90
51589;DHT22;37671;53.258;6.460;2022-11-20T07:46:33;0.50;99.90
51589;DHT22;37671;53.258;6.460;2022-11-20T07:48:59;0.50;99.90
51589;DHT22;37671;53.258;6.460;2022-11-20T07:51:24;0.50;99.90
51589;DHT22;37671;53.258;6.460;2022-11-20T07:53:52;0.50;99.90
51589;DHT22;37671;53.258;6.460;2022-11-20T07:56:17;0.30;99.90
51589;DHT22;37671;53.258;6.460;2022-11-20T07:58:43;0.50;99.90
51589;DHT22;37671;53.258;6.460;2022-11-20T08:01:08;0.60;99.90
51589;DHT22;37671;53.258;6.460;2022-11-20T08:03:34;0.60;99.90
51589;DHT22;37671;53.258;6.460;2022-11-20T08:06:03;0.60;99.90
51589;DHT22;37671;53.258;6.460;2022-11-20T08:08:29;0.60;99.90
51589;DHT22;37671;53.258;6.460;2022-11-20T08:10:57;0.70;99.90
51589;DHT22;37671;53.258;6.460;2022-11-20T08:13:42;0.70;99.90
51589;DHT22;37671;53.258;6.460;2022-11-20T08:16:26;0.70;99.90
51589;DHT22;37671;53.258;6.460;2022-11-20T08:18:52;0.70;99.90
51589;DHT22;37671;53.258;6.460;2022-11-20T08:21:18;0.70;99.90
51589;DHT22;37671;53.258;6.460;2022-11-20T08:23:43;0.80;99.90
51589;DHT22;37671;53.258;6.460;2022-11-20T08:26:09;0.70;99.90
51589;DHT22;37671;53.258;6.460;2022-11-20T08:28:34;0.80;99.90
51589;DHT22;37671;53.258;6.460;2022-11-20T08:31:00;0.70;99.90
51589;DHT22;37671;53.258;6.460;2022-11-20T08:33:26;0.80;99.90
51589;DHT22;37671;53.258;6.460;2022-11-20T08:35:52;0.70;99.90
51589;DHT22;37671;53.258;6.460;2022-11-20T08:38:17;0.80;99.90
51589;DHT22;37671;53.258;6.460;2022-11-20T08:40:43;0.80;99.90
51589;DHT22;37671;53.258;6.460;2022-11-20T08:43:28;0.80;99.90
51589;DHT22;37671;53.258;6.460;2022-11-20T08:45:56;0.80;99.90
51589;DHT22;37671;53.258;6.460;2022-11-20T08:48:22;0.90;99.90
51589;DHT22;37671;53.258;6.460;2022-11-20T08:50:47;0.80;99.90
51589;DHT22;37671;53.258;6.460;2022-11-20T08:53:13;0.80;99.90
51589;DHT22;37671;53.258;6.460;2022-11-20T08:55:38;0.90;99.90
51589;DHT22;37671;53.258;6.460;2022-11-20T08:58:05;0.80;99.90
51589;DHT22;37671;53.258;6.460;2022-11-20T09:00:32;0.90;99.90
51589;DHT22;37671;53.258;6.460;2022-11-20T09:02:58;1.00;99.90
51589;DHT22;37671;53.258;6.460;2022-11-20T09:05:24;1.00;99.90
51589;DHT22;37671;53.258;6.460;2022-11-20T09:07:50;1.10;99.90
51589;DHT22;37671;53.258;6.460;2022-11-20T09:10:15;1.00;99.90
51589;DHT22;37671;53.258;6.460;2022-11-20T09:12:41;1.10;99.90
51589;DHT22;37671;53.258;6.460;2022-11-20T09:15:07;1.10;99.90
51589;DHT22;37671;53.258;6.460;2022-11-20T09:17:32;1.10;99.90
51589;DHT22;37671;53.258;6.460;2022-11-20T09:19:58;1.10;99.90
51589;DHT22;37671;53.258;6.460;2022-11-20T09:22:24;1.10;99.90
51589;DHT22;37671;53.258;6.460;2022-11-20T09:24:49;1.10;99.90
51589;DHT22;37671;53.258;6.460;2022-11-20T09:27:15;1.20;99.90
51589;DHT22;37671;53.258;6.460;2022-11-20T09:29:45;1.10;99.90
51589;DHT22;37671;53.258;6.460;2022-11-20T09:32:11;1.10;99.90
51589;DHT22;37671;53.258;6.460;2022-11-20T09:34:37;1.20;99.90
51589;DHT22;37671;53.258;6.460;2022-11-20T09:37:02;2.30;99.90
51589;DHT22;37671;53.258;6.460;2022-11-20T09:39:28;1.30;99.90
51589;DHT22;37671;53.258;6.460;2022-11-20T09:42:05;1.30;99.90
51589;DHT22;37671;53.258;6.460;2022-11-20T09:47:42;1.40;99.90
51589;DHT22;37671;53.258;6.460;2022-11-20T09:50:31;1.50;99.90
51589;DHT22;37671;53.258;6.460;2022-11-20T09:56:01;1.60;99.90
51589;DHT22;37671;53.258;6.460;2022-11-20T09:58:50;1.80;99.90
51589;DHT22;37671;53.258;6.460;2022-11-20T10:01:19;1.90;99.90
51589;DHT22;37671;53.258;6.460;2022-11-20T10:04:08;1.90;99.90
51589;DHT22;37671;53.258;6.460;2022-11-20T10:06:53;2.00;99.90
51589;DHT22;37671;53.258;6.460;2022-11-20T10:09:37;2.00;99.90
51589;DHT22;37671;53.258;6.460;2022-11-20T10:12:12;3.00;99.90
51589;DHT22;37671;53.258;6.460;2022-11-20T10:14:45;2.20;99.90
51589;DHT22;37671;53.258;6.460;2022-11-20T10:20:16;2.30;99.90
51589;DHT22;37671;53.258;6.460;2022-11-20T10:25:24;2.40;99.90
51589;DHT22;37671;53.258;6.460;2022-11-20T10:28:18;2.50;99.90
51589;DHT22;37671;53.258;6.460;2022-11-20T10:31:11;2.50;99.90
51589;DHT22;37671;53.258;6.460;2022-11-20T10:33:42;2.50;99.90
51589;DHT22;37671;53.258;6.460;2022-11-20T10:36:19;2.50;99.90
51589;DHT22;37671;53.258;6.460;2022-11-20T10:38:54;2.60;99.90
51589;DHT22;37671;53.258;6.460;2022-11-20T10:41:28;2.60;99.90
51589;DHT22;37671;53.258;6.460;2022-11-20T10:44:15;2.60;99.90
51589;DHT22;37671;53.258;6.460;2022-11-20T10:47:03;2.60;99.90
51589;DHT22;37671;53.258;6.460;2022-11-20T10:49:31;2.80;99.90
51589;DHT22;37671;53.258;6.460;2022-11-20T11:00:12;3.00;99.90
51589;DHT22;37671;53.258;6.460;2022-11-20T11:02:48;3.00;99.90
51589;DHT22;37671;53.258;6.460;2022-11-20T11:05:21;3.20;99.90
51589;DHT22;37671;53.258;6.460;2022-11-20T11:07:50;3.20;99.90
51589;DHT22;37671;53.258;6.460;2022-11-20T11:12:49;2.90;99.90
51589;DHT22;37671;53.258;6.460;2022-11-20T11:15:57;2.90;99.90
51589;DHT22;37671;53.258;6.460;2022-11-20T11:18:30;2.80;99.90
51589;DHT22;37671;53.258;6.460;2022-11-20T11:20:59;2.80;99.90
51589;DHT22;37671;53.258;6.460;2022-11-20T11:23:42;2.70;99.90
51589;DHT22;37671;53.258;6.460;2022-11-20T11:26:24;2.50;99.90
51589;DHT22;37671;53.258;6.460;2022-11-20T11:31:31;2.50;99.90
51589;DHT22;37671;53.258;6.460;2022-11-20T11:34:14;2.20;99.90
51589;DHT22;37671;53.258;6.460;2022-11-20T11:36:41;2.50;99.90
51589;DHT22;37671;53.258;6.460;2022-11-20T11:39:14;2.40;99.90
51589;DHT22;37671;53.258;6.460;2022-11-20T11:41:40;2.30;99.90
51589;DHT22;37671;53.258;6.460;2022-11-20T11:44:20;2.20;99.90
51589;DHT22;37671;53.258;6.460;2022-11-20T11:47:10;2.20;99.90
51589;DHT22;37671;53.258;6.460;2022-11-20T11:49:36;2.20;99.90
51589;DHT22;37671;53.258;6.460;2022-11-20T11:54:48;2.20;99.90
51589;DHT22;37671;53.258;6.460;2022-11-20T12:00:15;2.10;99.90
51589;DHT22;37671;53.258;6.460;2022-11-20T12:10:45;2.20;99.90
51589;DHT22;37671;53.258;6.460;2022-11-20T12:15:59;2.30;99.90
51589;DHT22;37671;53.258;6.460;2022-11-20T12:18:26;3.20;99.90
51589;DHT22;37671;53.258;6.460;2022-11-20T12:21:11;2.50;99.90
51589;DHT22;37671;53.258;6.460;2022-11-20T12:23:47;2.60;99.90
51589;DHT22;37671;53.258;6.460;2022-11-20T12:34:42;3.30;99.90
51589;DHT22;37671;53.258;6.460;2022-11-20T12:39:48;3.30;99.90
51589;DHT22;37671;53.258;6.460;2022-11-20T12:45:46;3.20;99.90
51589;DHT22;37671;53.258;6.460;2022-11-20T12:53:31;3.10;99.90
51589;DHT22;37671;53.258;6.460;2022-11-20T13:07:10;3.10;99.90
51589;DHT22;37671;53.258;6.460;2022-11-20T13:09:42;3.10;99.90
51589;DHT22;37671;53.258;6.460;2022-11-20T13:12:25;3.50;99.90
51589;DHT22;37671;53.258;6.460;2022-11-20T13:17:43;3.20;99.90
51589;DHT22;37671;53.258;6.460;2022-11-20T13:20:16;3.10;99.90
51589;DHT22;37671;53.258;6.460;2022-11-20T13:22:44;3.20;99.90
51589;DHT22;37671;53.258;6.460;2022-11-20T13:27:48;3.10;99.90
51589;DHT22;37671;53.258;6.460;2022-11-20T13:30:18;3.20;99.90
51589;DHT22;37671;53.258;6.460;2022-11-20T13:32:53;3.30;99.90
51589;DHT22;37671;53.258;6.460;2022-11-20T13:35:37;3.30;99.90
51589;DHT22;37671;53.258;6.460;2022-11-20T13:38:12;3.20;99.90
51589;DHT22;37671;53.258;6.460;2022-11-20T13:40:52;3.10;99.90
51589;DHT22;37671;53.258;6.460;2022-11-20T13:46:03;3.10;99.90
51589;DHT22;37671;53.258;6.460;2022-11-20T13:48:34;3.10;99.90
51589;DHT22;37671;53.258;6.460;2022-11-20T13:51:15;3.20;99.90
51589;DHT22;37671;53.258;6.460;2022-11-20T14:02:11;3.00;99.90
51589;DHT22;37671;53.258;6.460;2022-11-20T14:04:43;3.00;99.90
51589;DHT22;37671;53.258;6.460;2022-11-20T14:07:10;2.90;99.90
51589;DHT22;37671;53.258;6.460;2022-11-20T14:09:36;2.90;99.90
51589;DHT22;37671;53.258;6.460;2022-11-20T14:12:03;3.00;99.90
51589;DHT22;37671;53.258;6.460;2022-11-20T14:14:30;3.00;99.90
51589;DHT22;37671;53.258;6.460;2022-11-20T14:17:31;3.00;99.90
51589;DHT22;37671;53.258;6.460;2022-11-20T14:20:04;3.00;99.90
51589;DHT22;37671;53.258;6.460;2022-11-20T14:22:30;2.90;99.90
51589;DHT22;37671;53.258;6.460;2022-11-20T14:25:04;2.90;99.90
51589;DHT22;37671;53.258;6.460;2022-11-20T14:27:34;2.90;99.90
51589;DHT22;37671;53.258;6.460;2022-11-20T14:30:02;2.80;99.90
51589;DHT22;37671;53.258;6.460;2022-11-20T14:32:29;2.80;99.90
51589;DHT22;37671;53.258;6.460;2022-11-20T14:34:59;2.70;99.90
51589;DHT22;37671;53.258;6.460;2022-11-20T14:37:28;2.70;99.90
51589;DHT22;37671;53.258;6.460;2022-11-20T14:39:56;2.60;99.90
51589;DHT22;37671;53.258;6.460;2022-11-20T14:42:25;2.60;99.90
51589;DHT22;37671;53.258;6.460;2022-11-20T14:44:55;2.50;99.90
51589;DHT22;37671;53.258;6.460;2022-11-20T14:47:24;2.50;99.90
51589;DHT22;37671;53.258;6.460;2022-11-20T14:49:51;2.50;99.90
51589;DHT22;37671;53.258;6.460;2022-11-20T14:52:20;2.50;99.90
51589;DHT22;37671;53.258;6.460;2022-11-20T14:54:51;2.50;99.90
51589;DHT22;37671;53.258;6.460;2022-11-20T14:59:50;2.40;99.90
51589;DHT22;37671;53.258;6.460;2022-11-20T15:02:16;2.40;99.90
51589;DHT22;37671;53.258;6.460;2022-11-20T15:04:49;2.40;99.90
51589;DHT22;37671;53.258;6.460;2022-11-20T15:07:26;2.30;99.90
51589;DHT22;37671;53.258;6.460;2022-11-20T15:10:01;2.30;99.90
51589;DHT22;37671;53.258;6.460;2022-11-20T15:12:27;2.30;99.90
51589;DHT22;37671;53.258;6.460;2022-11-20T15:14:52;2.20;99.90
51589;DHT22;37671;53.258;6.460;2022-11-20T15:17:18;2.20;99.90
51589;DHT22;37671;53.258;6.460;2022-11-20T15:19:47;2.20;99.90
51589;DHT22;37671;53.258;6.460;2022-11-20T15:22:12;2.10;99.90
51589;DHT22;37671;53.258;6.460;2022-11-20T15:24:39;2.10;99.90
51589;DHT22;37671;53.258;6.460;2022-11-20T15:27:05;2.00;99.90
51589;DHT22;37671;53.258;6.460;2022-11-20T15:29:31;2.00;99.90
51589;DHT22;37671;53.258;6.460;2022-11-20T15:31:56;2.00;99.90
51589;DHT22;37671;53.258;6.460;2022-11-20T15:34:22;2.50;99.90
51589;DHT22;37671;53.258;6.460;2022-11-20T15:36:48;1.90;99.90
51589;DHT22;37671;53.258;6.460;2022-11-20T15:39:14;1.90;99.90
51589;DHT22;37671;53.258;6.460;2022-11-20T15:41:39;1.90;99.90
51589;DHT22;37671;53.258;6.460;2022-11-20T15:44:05;1.90;99.90
51589;DHT22;37671;53.258;6.460;2022-11-20T15:46:32;1.90;99.90
51589;DHT22;37671;53.258;6.460;2022-11-20T15:49:03;1.90;99.90
51589;DHT22;37671;53.258;6.460;2022-11-20T15:51:34;1.80;99.90
51589;DHT22;37671;53.258;6.460;2022-11-20T15:54:03;1.80;99.90
51589;DHT22;37671;53.258;6.460;2022-11-20T15:56:34;1.80;99.90
51589;DHT22;37671;53.258;6.460;2022-11-20T15:58:59;1.80;99.90
51589;DHT22;37671;53.258;6.460;2022-11-20T16:01:25;1.80;99.90
51589;DHT22;37671;53.258;6.460;2022-11-20T16:03:51;1.90;99.90
51589;DHT22;37671;53.258;6.460;2022-11-20T16:06:16;1.70;99.90
51589;DHT22;37671;53.258;6.460;2022-11-20T16:08:42;1.70;99.90
51589;DHT22;37671;53.258;6.460;2022-11-20T16:11:12;1.70;99.90
51589;DHT22;37671;53.258;6.460;2022-11-20T16:13:38;1.70;99.90
51589;DHT22;37671;53.258;6.460;2022-11-20T16:16:33;1.70;99.90
51589;DHT22;37671;53.258;6.460;2022-11-20T16:18:59;1.80;99.90
51589;DHT22;37671;53.258;6.460;2022-11-20T16:21:25;1.80;99.90
51589;DHT22;37671;53.258;6.460;2022-11-20T16:24:03;1.70;99.90
51589;DHT22;37671;53.258;6.460;2022-11-20T16:26:29;1.80;99.90
51589;DHT22;37671;53.258;6.460;2022-11-20T16:28:55;1.70;99.90
51589;DHT22;37671;53.258;6.460;2022-11-20T16:31:21;1.70;99.90
51589;DHT22;37671;53.258;6.460;2022-11-20T16:33:55;1.80;99.90
51589;DHT22;37671;53.258;6.460;2022-11-20T16:36:23;1.80;99.90
51589;DHT22;37671;53.258;6.460;2022-11-20T16:38:56;1.70;99.90
51589;DHT22;37671;53.258;6.460;2022-11-20T16:41:22;1.80;99.90
51589;DHT22;37671;53.258;6.460;2022-11-20T16:43:51;1.70;99.90
51589;DHT22;37671;53.258;6.460;2022-11-20T16:46:20;1.70;99.90
51589;DHT22;37671;53.258;6.460;2022-11-20T16:48:53;1.70;99.90
51589;DHT22;37671;53.258;6.460;2022-11-20T16:51:22;1.70;99.90
51589;DHT22;37671;53.258;6.460;2022-11-20T16:53:49;1.70;99.90
51589;DHT22;37671;53.258;6.460;2022-11-20T16:56:19;1.70;99.90
51589;DHT22;37671;53.258;6.460;2022-11-20T16:58:47;1.60;99.90
51589;DHT22;37671;53.258;6.460;2022-11-20T17:01:15;2.70;99.90
51589;DHT22;37671;53.258;6.460;2022-11-20T17:03:42;1.60;99.90
51589;DHT22;37671;53.258;6.460;2022-11-20T17:06:16;1.60;99.90
51589;DHT22;37671;53.258;6.460;2022-11-20T17:08:43;1.60;99.90
51589;DHT22;37671;53.258;6.460;2022-11-20T17:11:11;1.60;99.90
51589;DHT22;37671;53.258;6.460;2022-11-20T17:13:37;1.60;99.90
51589;DHT22;37671;53.258;6.460;2022-11-20T17:18:57;1.60;99.90
51589;DHT22;37671;53.258;6.460;2022-11-20T17:21:24;1.60;99.90
51589;DHT22;37671;53.258;6.460;2022-11-20T17:23:49;1.60;99.90
51589;DHT22;37671;53.258;6.460;2022-11-20T17:26:22;1.60;99.90
51589;DHT22;37671;53.258;6.460;2022-11-20T17:29:03;1.60;99.90
51589;DHT22;37671;53.258;6.460;2022-11-20T17:31:31;1.60;99.90
51589;DHT22;37671;53.258;6.460;2022-11-20T17:33:57;1.60;99.90
51589;DHT22;37671;53.258;6.460;2022-11-20T17:36:27;1.60;99.90
51589;DHT22;37671;53.258;6.460;2022-11-20T17:38:53;1.50;99.90
51589;DHT22;37671;53.258;6.460;2022-11-20T17:41:24;1.50;99.90
51589;DHT22;37671;53.258;6.460;2022-11-20T17:43:53;1.50;99.90
51589;DHT22;37671;53.258;6.460;2022-11-20T17:46:22;1.50;99.90
51589;DHT22;37671;53.258;6.460;2022-11-20T17:48:48;1.50;99.90
51589;DHT22;37671;53.258;6.460;2022-11-20T17:51:17;1.50;99.90
51589;DHT22;37671;53.258;6.460;2022-11-20T17:53:45;1.50;99.90
51589;DHT22;37671;53.258;6.460;2022-11-20T17:56:11;1.50;99.90
51589;DHT22;37671;53.258;6.460;2022-11-20T17:58:56;1.50;99.90
51589;DHT22;37671;53.258;6.460;2022-11-20T18:01:22;1.50;99.90
51589;DHT22;37671;53.258;6.460;2022-11-20T18:03:48;1.50;99.90
51589;DHT22;37671;53.258;6.460;2022-11-20T18:06:20;1.50;99.90
51589;DHT22;37671;53.258;6.460;2022-11-20T18:08:46;1.50;99.90
51589;DHT22;37671;53.258;6.460;2022-11-20T18:13:44;1.50;99.90
51589;DHT22;37671;53.258;6.460;2022-11-20T18:16:30;1.50;99.90
51589;DHT22;37671;53.258;6.460;2022-11-20T18:18:57;1.50;99.90
51589;DHT22;37671;53.258;6.460;2022-11-20T18:21:25;1.50;99.90
51589;DHT22;37671;53.258;6.460;2022-11-20T18:23:51;1.40;99.90
51589;DHT22;37671;53.258;6.460;2022-11-20T18:26:17;1.40;99.90
51589;DHT22;37671;53.258;6.460;2022-11-20T18:28:44;1.40;99.90
51589;DHT22;37671;53.258;6.460;2022-11-20T18:31:10;1.40;99.90
51589;DHT22;37671;53.258;6.460;2022-11-20T18:33:36;1.40;99.90
51589;DHT22;37671;53.258;6.460;2022-11-20T18:36:15;1.50;99.90
51589;DHT22;37671;53.258;6.460;2022-11-20T18:38:43;1.50;99.90
51589;DHT22;37671;53.258;6.460;2022-11-20T18:41:10;1.40;99.90
51589;DHT22;37671;53.258;6.460;2022-11-20T18:43:59;1.40;99.90
51589;DHT22;37671;53.258;6.460;2022-11-20T18:46:43;1.40;99.90
51589;DHT22;37671;53.258;6.460;2022-11-20T18:49:09;1.50;99.90
51589;DHT22;37671;53.258;6.460;2022-11-20T18:51:36;1.50;99.90
51589;DHT22;37671;53.258;6.460;2022-11-20T18:54:03;1.50;99.90
51589;DHT22;37671;53.258;6.460;2022-11-20T18:56:29;1.50;99.90
51589;DHT22;37671;53.258;6.460;2022-11-20T18:58:55;2.60;99.90
51589;DHT22;37671;53.258;6.460;2022-11-20T19:01:20;1.50;99.90
51589;DHT22;37671;53.258;6.460;2022-11-20T19:03:46;1.50;99.90
51589;DHT22;37671;53.258;6.460;2022-11-20T19:06:15;1.50;99.90
51589;DHT22;37671;53.258;6.460;2022-11-20T19:08:42;1.50;99.90
51589;DHT22;37671;53.258;6.460;2022-11-20T19:11:09;1.40;99.90
51589;DHT22;37671;53.258;6.460;2022-11-20T19:13:35;1.40;99.90
51589;DHT22;37671;53.258;6.460;2022-11-20T19:16:06;1.50;99.90
51589;DHT22;37671;53.258;6.460;2022-11-20T19:18:33;2.80;99.90
51589;DHT22;37671;53.258;6.460;2022-11-20T19:21:10;2.30;99.90
51589;DHT22;37671;53.258;6.460;2022-11-20T19:23:36;1.40;99.90
51589;DHT22;37671;53.258;6.460;2022-11-20T19:26:02;2.90;99.90
51589;DHT22;37671;53.258;6.460;2022-11-20T19:28:35;1.30;99.90
51589;DHT22;37671;53.258;6.460;2022-11-20T19:31:03;1.20;99.90
51589;DHT22;37671;53.258;6.460;2022-11-20T19:33:33;1.30;99.90
51589;DHT22;37671;53.258;6.460;2022-11-20T19:36:13;1.00;99.90
51589;DHT22;37671;53.258;6.460;2022-11-20T19:38:40;1.20;99.90
51589;DHT22;37671;53.258;6.460;2022-11-20T19:41:08;1.20;99.90
51589;DHT22;37671;53.258;6.460;2022-11-20T19:43:34;2.60;99.90
51589;DHT22;37671;53.258;6.460;2022-11-20T19:46:00;1.10;99.90
51589;DHT22;37671;53.258;6.460;2022-11-20T19:48:29;1.20;99.90
51589;DHT22;37671;53.258;6.460;2022-11-20T19:50:55;2.80;99.90
51589;DHT22;37671;53.258;6.460;2022-11-20T19:53:21;1.10;99.90
51589;DHT22;37671;53.258;6.460;2022-11-20T19:55:57;1.10;99.90
51589;DHT22;37671;53.258;6.460;2022-11-20T19:58:23;0.50;99.90
51589;DHT22;37671;53.258;6.460;2022-11-20T20:00:49;2.50;99.90
51589;DHT22;37671;53.258;6.460;2022-11-20T20:03:16;1.20;99.90
51589;DHT22;37671;53.258;6.460;2022-11-20T20:05:42;1.20;99.90
51589;DHT22;37671;53.258;6.460;2022-11-20T20:08:07;1.10;99.90
51589;DHT22;37671;53.258;6.460;2022-11-20T20:10:33;1.20;99.90
51589;DHT22;37671;53.258;6.460;2022-11-20T20:12:59;2.90;99.90
51589;DHT22;37671;53.258;6.460;2022-11-20T20:15:25;1.20;99.90
51589;DHT22;37671;53.258;6.460;2022-11-20T20:17:52;1.10;99.90
51589;DHT22;37671;53.258;6.460;2022-11-20T20:20:17;1.00;99.90
51589;DHT22;37671;53.258;6.460;2022-11-20T20:22:43;2.60;99.90
51589;DHT22;37671;53.258;6.460;2022-11-20T20:25:09;1.20;99.90
51589;DHT22;37671;53.258;6.460;2022-11-20T20:27:34;1.20;99.90
51589;DHT22;37671;53.258;6.460;2022-11-20T20:30:04;1.20;99.90
51589;DHT22;37671;53.258;6.460;2022-11-20T20:32:31;1.20;99.90
51589;DHT22;37671;53.258;6.460;2022-11-20T20:34:57;1.20;99.90
51589;DHT22;37671;53.258;6.460;2022-11-20T20:37:22;1.10;99.90
51589;DHT22;37671;53.258;6.460;2022-11-20T20:39:48;1.10;99.90
51589;DHT22;37671;53.258;6.460;2022-11-20T20:42:14;1.00;99.90
51589;DHT22;37671;53.258;6.460;2022-11-20T20:44:39;2.40;99.90
51589;DHT22;37671;53.258;6.460;2022-11-20T20:47:32;2.70;99.90
51589;DHT22;37671;53.258;6.460;2022-11-20T20:50:02;1.20;99.90
51589;DHT22;37671;53.258;6.460;2022-11-20T20:52:28;1.10;99.90
51589;DHT22;37671;53.258;6.460;2022-11-20T20:54:54;1.10;99.90
51589;DHT22;37671;53.258;6.460;2022-11-20T20:57:22;0.90;99.90
51589;DHT22;37671;53.258;6.460;2022-11-20T20:59:48;1.10;99.90
51589;DHT22;37671;53.258;6.460;2022-11-20T21:02:14;1.10;99.90
51589;DHT22;37671;53.258;6.460;2022-11-20T21:04:39;1.20;99.90
51589;DHT22;37671;53.258;6.460;2022-11-20T21:07:05;1.10;99.90
51589;DHT22;37671;53.258;6.460;2022-11-20T21:09:31;0.90;99.90
51589;DHT22;37671;53.258;6.460;2022-11-20T21:11:56;1.10;99.90
51589;DHT22;37671;53.258;6.460;2022-11-20T21:14:22;1.10;99.90
51589;DHT22;37671;53.258;6.460;2022-11-20T21:16:49;1.10;99.90
51589;DHT22;37671;53.258;6.460;2022-11-20T21:19:15;1.10;99.90
51589;DHT22;37671;53.258;6.460;2022-11-20T21:21:40;1.10;99.90
51589;DHT22;37671;53.258;6.460;2022-11-20T21:24:29;1.10;99.90
51589;DHT22;37671;53.258;6.460;2022-11-20T21:26:55;1.00;99.90
51589;DHT22;37671;53.258;6.460;2022-11-20T21:29:22;1.00;99.90
51589;DHT22;37671;53.258;6.460;2022-11-20T21:31:48;1.00;99.90
51589;DHT22;37671;53.258;6.460;2022-11-20T21:34:15;1.00;99.90
51589;DHT22;37671;53.258;6.460;2022-11-20T21:36:41;1.00;99.90
51589;DHT22;37671;53.258;6.460;2022-11-20T21:39:09;1.00;99.90
51589;DHT22;37671;53.258;6.460;2022-11-20T21:41:35;0.90;99.90
51589;DHT22;37671;53.258;6.460;2022-11-20T21:44:00;0.90;99.90
51589;DHT22;37671;53.258;6.460;2022-11-20T21:46:30;0.90;99.90
51589;DHT22;37671;53.258;6.460;2022-11-20T21:48:56;1.00;99.90
51589;DHT22;37671;53.258;6.460;2022-11-20T21:51:24;0.90;99.90
51589;DHT22;37671;53.258;6.460;2022-11-20T21:53:51;0.90;99.90
51589;DHT22;37671;53.258;6.460;2022-11-20T21:56:19;1.00;99.90
51589;DHT22;37671;53.258;6.460;2022-11-20T21:58:46;0.90;99.90
51589;DHT22;37671;53.258;6.460;2022-11-20T22:01:31;0.90;99.90
51589;DHT22;37671;53.258;6.460;2022-11-20T22:03:59;0.90;99.90
51589;DHT22;37671;53.258;6.460;2022-11-20T22:06:28;0.90;99.90
51589;DHT22;37671;53.258;6.460;2022-11-20T22:08:54;0.90;99.90